sensor_id;sensor_type;location;lat;lon;timestamp;P1;durP1;ratioP1;P2;durP2;ratioP2
3997;SDS011;61314;53.444;9.902;2022-07-10T00:01:37;2.37;;;1.27;;
3997;SDS011;61314;53.444;9.902;2022-07-10T00:04:04;1.57;;;0.97;;
3997;SDS011;61314;53.444;9.902;2022-07-10T00:06:31;4.50;;;1.20;;
3997;SDS011;61314;53.444;9.902;2022-07-10T00:08:58;2.37;;;1.00;;
3997;SDS011;61314;53.444;9.902;2022-07-10T00:11:25;4.83;;;1.27;;
3997;SDS011;61314;53.444;9.902;2022-07-10T00:13:53;8.23;;;1.93;;
3997;SDS011;61314;53.444;9.902;2022-07-10T00:16:20;1.73;;;1.17;;
3997;SDS011;61314;53.444;9.902;2022-07-10T00:18:47;4.93;;;1.57;;
3997;SDS011;61314;53.444;9.902;2022-07-10T00:21:14;5.73;;;1.20;;
3997;SDS011;61314;53.444;9.902;2022-07-10T00:23:42;5.47;;;1.83;;
3997;SDS011;61314;53.444;9.902;2022-07-10T00:26:09;1.90;;;1.33;;
3997;SDS011;61314;53.444;9.902;2022-07-10T00:28:37;5.87;;;1.50;;
3997;SDS011;61314;53.444;9.902;2022-07-10T00:31:05;3.60;;;1.33;;
3997;SDS011;61314;53.444;9.902;2022-07-10T00:33:32;2.53;;;1.40;;
3997;SDS011;61314;53.444;9.902;2022-07-10T00:35:59;5.30;;;1.60;;
3997;SDS011;61314;53.444;9.902;2022-07-10T00:38:27;2.90;;;1.40;;
3997;SDS011;61314;53.444;9.902;2022-07-10T00:40:54;7.13;;;1.30;;
3997;SDS011;61314;53.444;9.902;2022-07-10T00:43:21;4.33;;;1.30;;
3997;SDS011;61314;53.444;9.902;2022-07-10T00:45:49;5.13;;;1.30;;
3997;SDS011;61314;53.444;9.902;2022-07-10T00:48:16;3.63;;;1.57;;
3997;SDS011;61314;53.444;9.902;2022-07-10T00:50:44;5.27;;;1.23;;
3997;SDS011;61314;53.444;9.902;2022-07-10T00:53:12;4.40;;;1.20;;
3997;SDS011;61314;53.444;9.902;2022-07-10T00:55:40;4.23;;;1.13;;
3997;SDS011;61314;53.444;9.902;2022-07-10T00:58:09;14.60;;;1.40;;
3997;SDS011;61314;53.444;9.902;2022-07-10T01:00:38;1.77;;;0.93;;
3997;SDS011;61314;53.444;9.902;2022-07-10T01:03:05;10.87;;;1.10;;
3997;SDS011;61314;53.444;9.902;2022-07-10T01:05:32;4.80;;;2.30;;
3997;SDS011;61314;53.444;9.902;2022-07-10T01:07:59;5.67;;;3.00;;
3997;SDS011;61314;53.444;9.902;2022-07-10T01:10:27;4.37;;;1.30;;
3997;SDS011;61314;53.444;9.902;2022-07-10T01:12:54;4.87;;;1.20;;
3997;SDS011;61314;53.444;9.902;2022-07-10T01:15:21;1.83;;;1.13;;
3997;SDS011;61314;53.444;9.902;2022-07-10T01:17:49;4.53;;;1.10;;
3997;SDS011;61314;53.444;9.902;2022-07-10T01:20:19;6.30;;;1.70;;
3997;SDS011;61314;53.444;9.902;2022-07-10T01:22:47;6.43;;;1.43;;
3997;SDS011;61314;53.444;9.902;2022-07-10T01:25:14;7.80;;;2.60;;
3997;SDS011;61314;53.444;9.902;2022-07-10T01:27:43;6.87;;;1.53;;
3997;SDS011;61314;53.444;9.902;2022-07-10T01:30:11;5.50;;;1.63;;
3997;SDS011;61314;53.444;9.902;2022-07-10T01:32:41;5.70;;;1.73;;
3997;SDS011;61314;53.444;9.902;2022-07-10T01:35:08;6.60;;;1.67;;
3997;SDS011;61314;53.444;9.902;2022-07-10T01:37:36;5.43;;;1.40;;
3997;SDS011;61314;53.444;9.902;2022-07-10T01:40:03;9.00;;;2.07;;
3997;SDS011;61314;53.444;9.902;2022-07-10T01:42:31;13.37;;;2.20;;
3997;SDS011;61314;53.444;9.902;2022-07-10T01:44:58;9.23;;;2.10;;
3997;SDS011;61314;53.444;9.902;2022-07-10T01:47:32;17.10;;;1.57;;
3997;SDS011;61314;53.444;9.902;2022-07-10T01:49:59;7.03;;;1.57;;
3997;SDS011;61314;53.444;9.902;2022-07-10T01:52:26;9.37;;;1.30;;
3997;SDS011;61314;53.444;9.902;2022-07-10T01:54:54;6.00;;;1.53;;
3997;SDS011;61314;53.444;9.902;2022-07-10T01:57:21;15.03;;;3.27;;
3997;SDS011;61314;53.444;9.902;2022-07-10T01:59:48;4.10;;;1.40;;
3997;SDS011;61314;53.444;9.902;2022-07-10T02:02:16;1.83;;;1.30;;
3997;SDS011;61314;53.444;9.902;2022-07-10T02:04:43;6.87;;;1.77;;
3997;SDS011;61314;53.444;9.902;2022-07-10T02:07:11;8.67;;;2.10;;
3997;SDS011;61314;53.444;9.902;2022-07-10T02:09:38;8.30;;;2.13;;
3997;SDS011;61314;53.444;9.902;2022-07-10T02:12:06;5.60;;;1.67;;
3997;SDS011;61314;53.444;9.902;2022-07-10T02:14:34;11.10;;;1.90;;
3997;SDS011;61314;53.444;9.902;2022-07-10T02:17:01;12.53;;;1.60;;
3997;SDS011;61314;53.444;9.902;2022-07-10T02:19:29;7.47;;;1.60;;
3997;SDS011;61314;53.444;9.902;2022-07-10T02:21:56;4.70;;;1.53;;
3997;SDS011;61314;53.444;9.902;2022-07-10T02:24:23;5.40;;;1.70;;
3997;SDS011;61314;53.444;9.902;2022-07-10T02:26:51;8.47;;;1.53;;
3997;SDS011;61314;53.444;9.902;2022-07-10T02:29:18;10.20;;;1.90;;
3997;SDS011;61314;53.444;9.902;2022-07-10T02:31:45;10.47;;;1.70;;
3997;SDS011;61314;53.444;9.902;2022-07-10T02:34:13;14.10;;;2.33;;
3997;SDS011;61314;53.444;9.902;2022-07-10T02:36:40;11.13;;;1.77;;
3997;SDS011;61314;53.444;9.902;2022-07-10T02:39:08;7.00;;;1.80;;
3997;SDS011;61314;53.444;9.902;2022-07-10T02:41:35;9.80;;;2.57;;
3997;SDS011;61314;53.444;9.902;2022-07-10T02:44:03;5.63;;;1.63;;
3997;SDS011;61314;53.444;9.902;2022-07-10T02:46:30;8.37;;;2.03;;
3997;SDS011;61314;53.444;9.902;2022-07-10T02:48:58;11.50;;;2.80;;
3997;SDS011;61314;53.444;9.902;2022-07-10T02:51:25;9.83;;;3.20;;
3997;SDS011;61314;53.444;9.902;2022-07-10T02:53:52;5.33;;;1.90;;
3997;SDS011;61314;53.444;9.902;2022-07-10T02:56:24;6.63;;;2.40;;
3997;SDS011;61314;53.444;9.902;2022-07-10T02:58:51;8.13;;;1.87;;
3997;SDS011;61314;53.444;9.902;2022-07-10T03:01:19;7.53;;;2.40;;
3997;SDS011;61314;53.444;9.902;2022-07-10T03:03:47;11.37;;;2.13;;
3997;SDS011;61314;53.444;9.902;2022-07-10T03:06:14;6.03;;;2.27;;
3997;SDS011;61314;53.444;9.902;2022-07-10T03:08:41;7.33;;;1.83;;
3997;SDS011;61314;53.444;9.902;2022-07-10T03:11:08;7.27;;;2.53;;
3997;SDS011;61314;53.444;9.902;2022-07-10T03:13:36;12.10;;;2.67;;
3997;SDS011;61314;53.444;9.902;2022-07-10T03:16:03;11.67;;;2.10;;
3997;SDS011;61314;53.444;9.902;2022-07-10T03:18:30;6.87;;;1.80;;
3997;SDS011;61314;53.444;9.902;2022-07-10T03:20:58;10.53;;;2.83;;
3997;SDS011;61314;53.444;9.902;2022-07-10T03:23:25;7.00;;;2.40;;
3997;SDS011;61314;53.444;9.902;2022-07-10T03:25:53;4.83;;;2.43;;
3997;SDS011;61314;53.444;9.902;2022-07-10T03:28:20;9.50;;;2.97;;
3997;SDS011;61314;53.444;9.902;2022-07-10T03:30:47;6.70;;;2.47;;
3997;SDS011;61314;53.444;9.902;2022-07-10T03:33:15;7.37;;;2.37;;
3997;SDS011;61314;53.444;9.902;2022-07-10T03:35:42;7.70;;;2.73;;
3997;SDS011;61314;53.444;9.902;2022-07-10T03:38:09;7.90;;;2.13;;
3997;SDS011;61314;53.444;9.902;2022-07-10T03:40:36;15.27;;;2.80;;
3997;SDS011;61314;53.444;9.902;2022-07-10T03:43:04;11.10;;;4.10;;
3997;SDS011;61314;53.444;9.902;2022-07-10T03:45:31;6.87;;;2.80;;
3997;SDS011;61314;53.444;9.902;2022-07-10T03:47:58;13.17;;;2.93;;
3997;SDS011;61314;53.444;9.902;2022-07-10T03:50:25;8.30;;;2.53;;
3997;SDS011;61314;53.444;9.902;2022-07-10T03:52:53;8.13;;;2.30;;
3997;SDS011;61314;53.444;9.902;2022-07-10T03:55:20;9.23;;;3.17;;
3997;SDS011;61314;53.444;9.902;2022-07-10T03:57:47;8.50;;;2.90;;
3997;SDS011;61314;53.444;9.902;2022-07-10T04:00:21;10.80;;;2.73;;
3997;SDS011;61314;53.444;9.902;2022-07-10T04:02:56;10.47;;;3.03;;
3997;SDS011;61314;53.444;9.902;2022-07-10T04:05:24;13.40;;;2.90;;
3997;SDS011;61314;53.444;9.902;2022-07-10T04:07:51;9.80;;;2.73;;
3997;SDS011;61314;53.444;9.902;2022-07-10T04:10:19;15.83;;;2.87;;
3997;SDS011;61314;53.444;9.902;2022-07-10T04:12:47;19.00;;;3.70;;
3997;SDS011;61314;53.444;9.902;2022-07-10T04:15:14;9.97;;;3.73;;
3997;SDS011;61314;53.444;9.902;2022-07-10T04:17:42;12.90;;;3.70;;
3997;SDS011;61314;53.444;9.902;2022-07-10T04:20:09;8.23;;;3.20;;
3997;SDS011;61314;53.444;9.902;2022-07-10T04:22:37;10.50;;;2.27;;
3997;SDS011;61314;53.444;9.902;2022-07-10T04:25:04;14.30;;;3.60;;
3997;SDS011;61314;53.444;9.902;2022-07-10T04:27:32;11.90;;;2.87;;
3997;SDS011;61314;53.444;9.902;2022-07-10T04:29:59;7.07;;;2.90;;
3997;SDS011;61314;53.444;9.902;2022-07-10T04:32:27;7.00;;;2.83;;
3997;SDS011;61314;53.444;9.902;2022-07-10T04:34:54;16.10;;;5.17;;
3997;SDS011;61314;53.444;9.902;2022-07-10T04:37:22;14.80;;;3.77;;
3997;SDS011;61314;53.444;9.902;2022-07-10T04:39:49;14.47;;;4.50;;
3997;SDS011;61314;53.444;9.902;2022-07-10T04:42:23;13.27;;;3.43;;
3997;SDS011;61314;53.444;9.902;2022-07-10T04:44:50;10.70;;;2.80;;
3997;SDS011;61314;53.444;9.902;2022-07-10T04:47:18;17.27;;;4.77;;
3997;SDS011;61314;53.444;9.902;2022-07-10T04:49:45;11.10;;;3.47;;
3997;SDS011;61314;53.444;9.902;2022-07-10T04:52:12;11.10;;;3.80;;
3997;SDS011;61314;53.444;9.902;2022-07-10T04:54:39;16.40;;;4.00;;
3997;SDS011;61314;53.444;9.902;2022-07-10T04:57:07;11.17;;;3.40;;
3997;SDS011;61314;53.444;9.902;2022-07-10T04:59:34;10.47;;;3.87;;
3997;SDS011;61314;53.444;9.902;2022-07-10T05:02:01;19.87;;;4.10;;
3997;SDS011;61314;53.444;9.902;2022-07-10T05:04:29;13.10;;;4.30;;
3997;SDS011;61314;53.444;9.902;2022-07-10T05:06:56;10.80;;;3.73;;
3997;SDS011;61314;53.444;9.902;2022-07-10T05:09:23;25.17;;;4.03;;
3997;SDS011;61314;53.444;9.902;2022-07-10T05:11:51;16.13;;;4.43;;
3997;SDS011;61314;53.444;9.902;2022-07-10T05:14:18;17.97;;;4.20;;
3997;SDS011;61314;53.444;9.902;2022-07-10T05:16:45;16.73;;;4.93;;
3997;SDS011;61314;53.444;9.902;2022-07-10T05:19:12;19.60;;;5.07;;
3997;SDS011;61314;53.444;9.902;2022-07-10T05:21:40;16.83;;;3.60;;
3997;SDS011;61314;53.444;9.902;2022-07-10T05:24:07;15.13;;;3.47;;
3997;SDS011;61314;53.444;9.902;2022-07-10T05:26:34;22.43;;;4.00;;
3997;SDS011;61314;53.444;9.902;2022-07-10T05:29:02;25.37;;;5.43;;
3997;SDS011;61314;53.444;9.902;2022-07-10T05:31:30;17.30;;;4.23;;
3997;SDS011;61314;53.444;9.902;2022-07-10T05:33:57;16.20;;;4.20;;
3997;SDS011;61314;53.444;9.902;2022-07-10T05:36:24;22.43;;;5.60;;
3997;SDS011;61314;53.444;9.902;2022-07-10T05:38:52;12.23;;;3.87;;
3997;SDS011;61314;53.444;9.902;2022-07-10T05:41:19;12.70;;;4.20;;
3997;SDS011;61314;53.444;9.902;2022-07-10T05:43:46;13.10;;;4.80;;
3997;SDS011;61314;53.444;9.902;2022-07-10T05:46:13;22.27;;;3.77;;
3997;SDS011;61314;53.444;9.902;2022-07-10T05:48:40;16.20;;;3.70;;
3997;SDS011;61314;53.444;9.902;2022-07-10T05:51:08;18.17;;;4.43;;
3997;SDS011;61314;53.444;9.902;2022-07-10T05:53:55;16.43;;;4.63;;
3997;SDS011;61314;53.444;9.902;2022-07-10T05:56:22;13.37;;;4.03;;
3997;SDS011;61314;53.444;9.902;2022-07-10T05:58:49;14.73;;;4.07;;
3997;SDS011;61314;53.444;9.902;2022-07-10T06:01:16;14.30;;;3.47;;
3997;SDS011;61314;53.444;9.902;2022-07-10T06:03:44;13.17;;;3.90;;
3997;SDS011;61314;53.444;9.902;2022-07-10T06:06:11;31.67;;;4.13;;
3997;SDS011;61314;53.444;9.902;2022-07-10T06:08:42;16.17;;;3.23;;
3997;SDS011;61314;53.444;9.902;2022-07-10T06:11:10;25.30;;;4.20;;
3997;SDS011;61314;53.444;9.902;2022-07-10T06:13:37;16.20;;;3.97;;
3997;SDS011;61314;53.444;9.902;2022-07-10T06:16:05;15.83;;;3.87;;
3997;SDS011;61314;53.444;9.902;2022-07-10T06:18:32;21.20;;;4.07;;
3997;SDS011;61314;53.444;9.902;2022-07-10T06:20:58;14.93;;;3.43;;
3997;SDS011;61314;53.444;9.902;2022-07-10T06:23:29;11.77;;;3.50;;
3997;SDS011;61314;53.444;9.902;2022-07-10T06:25:56;12.40;;;3.60;;
3997;SDS011;61314;53.444;9.902;2022-07-10T06:28:23;16.03;;;3.73;;
3997;SDS011;61314;53.444;9.902;2022-07-10T06:30:49;14.33;;;3.40;;
3997;SDS011;61314;53.444;9.902;2022-07-10T06:33:23;15.43;;;3.80;;
3997;SDS011;61314;53.444;9.902;2022-07-10T06:35:50;9.67;;;4.57;;
3997;SDS011;61314;53.444;9.902;2022-07-10T06:38:17;16.07;;;3.30;;
3997;SDS011;61314;53.444;9.902;2022-07-10T06:40:43;23.73;;;3.80;;
3997;SDS011;61314;53.444;9.902;2022-07-10T06:43:13;14.83;;;4.40;;
3997;SDS011;61314;53.444;9.902;2022-07-10T06:45:40;16.77;;;3.20;;
3997;SDS011;61314;53.444;9.902;2022-07-10T06:48:07;16.23;;;2.90;;
3997;SDS011;61314;53.444;9.902;2022-07-10T06:50:35;15.00;;;3.13;;
3997;SDS011;61314;53.444;9.902;2022-07-10T06:53:02;19.23;;;3.77;;
3997;SDS011;61314;53.444;9.902;2022-07-10T06:55:29;17.10;;;2.93;;
3997;SDS011;61314;53.444;9.902;2022-07-10T06:57:57;7.17;;;2.97;;
3997;SDS011;61314;53.444;9.902;2022-07-10T07:00:24;11.80;;;3.20;;
3997;SDS011;61314;53.444;9.902;2022-07-10T07:02:52;7.27;;;3.50;;
3997;SDS011;61314;53.444;9.902;2022-07-10T07:05:20;23.60;;;3.70;;
3997;SDS011;61314;53.444;9.902;2022-07-10T07:07:47;20.30;;;4.47;;
3997;SDS011;61314;53.444;9.902;2022-07-10T07:10:15;20.80;;;3.10;;
3997;SDS011;61314;53.444;9.902;2022-07-10T07:12:42;10.10;;;3.00;;
3997;SDS011;61314;53.444;9.902;2022-07-10T07:15:09;14.77;;;3.97;;
3997;SDS011;61314;53.444;9.902;2022-07-10T07:17:40;15.70;;;3.33;;
3997;SDS011;61314;53.444;9.902;2022-07-10T07:20:24;13.90;;;3.27;;
3997;SDS011;61314;53.444;9.902;2022-07-10T07:23:10;11.77;;;3.50;;
3997;SDS011;61314;53.444;9.902;2022-07-10T07:25:37;14.40;;;3.00;;
3997;SDS011;61314;53.444;9.902;2022-07-10T07:28:10;7.90;;;2.47;;
3997;SDS011;61314;53.444;9.902;2022-07-10T07:30:37;20.23;;;2.70;;
3997;SDS011;61314;53.444;9.902;2022-07-10T07:33:05;12.53;;;3.30;;
3997;SDS011;61314;53.444;9.902;2022-07-10T07:35:32;13.83;;;3.40;;
3997;SDS011;61314;53.444;9.902;2022-07-10T07:38:00;14.80;;;2.30;;
3997;SDS011;61314;53.444;9.902;2022-07-10T07:40:28;8.40;;;2.77;;
3997;SDS011;61314;53.444;9.902;2022-07-10T07:42:55;9.13;;;2.10;;
3997;SDS011;61314;53.444;9.902;2022-07-10T07:45:24;7.93;;;2.70;;
3997;SDS011;61314;53.444;9.902;2022-07-10T07:47:56;5.47;;;2.47;;
3997;SDS011;61314;53.444;9.902;2022-07-10T07:50:26;13.33;;;2.73;;
3997;SDS011;61314;53.444;9.902;2022-07-10T07:52:55;10.50;;;2.10;;
3997;SDS011;61314;53.444;9.902;2022-07-10T07:55:22;12.70;;;2.23;;
3997;SDS011;61314;53.444;9.902;2022-07-10T07:57:54;11.07;;;2.77;;
3997;SDS011;61314;53.444;9.902;2022-07-10T08:00:22;14.63;;;2.83;;
3997;SDS011;61314;53.444;9.902;2022-07-10T08:02:51;9.83;;;3.10;;
3997;SDS011;61314;53.444;9.902;2022-07-10T08:05:19;11.50;;;2.70;;
3997;SDS011;61314;53.444;9.902;2022-07-10T08:07:49;8.53;;;2.63;;
3997;SDS011;61314;53.444;9.902;2022-07-10T08:10:19;7.30;;;2.03;;
3997;SDS011;61314;53.444;9.902;2022-07-10T08:12:47;15.20;;;2.60;;
3997;SDS011;61314;53.444;9.902;2022-07-10T08:15:15;14.63;;;2.43;;
3997;SDS011;61314;53.444;9.902;2022-07-10T08:17:54;10.20;;;2.30;;
3997;SDS011;61314;53.444;9.902;2022-07-10T08:20:22;15.23;;;2.93;;
3997;SDS011;61314;53.444;9.902;2022-07-10T08:22:50;13.60;;;2.60;;
3997;SDS011;61314;53.444;9.902;2022-07-10T08:25:25;7.03;;;2.10;;
3997;SDS011;61314;53.444;9.902;2022-07-10T08:28:00;12.50;;;2.70;;
3997;SDS011;61314;53.444;9.902;2022-07-10T08:30:27;16.43;;;2.27;;
3997;SDS011;61314;53.444;9.902;2022-07-10T08:32:55;9.73;;;2.23;;
3997;SDS011;61314;53.444;9.902;2022-07-10T08:35:22;9.60;;;2.33;;
3997;SDS011;61314;53.444;9.902;2022-07-10T08:37:49;7.10;;;2.20;;
3997;SDS011;61314;53.444;9.902;2022-07-10T08:40:16;9.33;;;1.70;;
3997;SDS011;61314;53.444;9.902;2022-07-10T08:42:45;14.60;;;2.97;;
3997;SDS011;61314;53.444;9.902;2022-07-10T08:45:12;10.83;;;2.63;;
3997;SDS011;61314;53.444;9.902;2022-07-10T08:47:40;14.27;;;2.33;;
3997;SDS011;61314;53.444;9.902;2022-07-10T08:50:23;11.37;;;2.13;;
3997;SDS011;61314;53.444;9.902;2022-07-10T08:55:38;9.27;;;2.27;;
3997;SDS011;61314;53.444;9.902;2022-07-10T08:58:06;6.90;;;1.80;;
3997;SDS011;61314;53.444;9.902;2022-07-10T09:00:35;11.53;;;2.17;;
3997;SDS011;61314;53.444;9.902;2022-07-10T09:03:02;10.10;;;2.30;;
3997;SDS011;61314;53.444;9.902;2022-07-10T09:05:29;7.90;;;1.80;;
3997;SDS011;61314;53.444;9.902;2022-07-10T09:07:56;5.07;;;2.07;;
3997;SDS011;61314;53.444;9.902;2022-07-10T09:10:24;5.60;;;1.57;;
3997;SDS011;61314;53.444;9.902;2022-07-10T09:12:56;11.23;;;2.40;;
3997;SDS011;61314;53.444;9.902;2022-07-10T09:15:26;8.90;;;2.00;;
3997;SDS011;61314;53.444;9.902;2022-07-10T09:17:56;6.47;;;2.10;;
3997;SDS011;61314;53.444;9.902;2022-07-10T09:25:45;11.47;;;2.50;;
3997;SDS011;61314;53.444;9.902;2022-07-10T09:28:16;4.57;;;1.63;;
3997;SDS011;61314;53.444;9.902;2022-07-10T09:30:44;3.83;;;1.93;;
3997;SDS011;61314;53.444;9.902;2022-07-10T09:36:03;2.50;;;1.37;;
3997;SDS011;61314;53.444;9.902;2022-07-10T09:41:31;7.53;;;1.50;;
3997;SDS011;61314;53.444;9.902;2022-07-10T09:44:04;7.33;;;2.00;;
3997;SDS011;61314;53.444;9.902;2022-07-10T09:46:39;3.47;;;1.73;;
3997;SDS011;61314;53.444;9.902;2022-07-10T09:49:10;5.70;;;1.60;;
3997;SDS011;61314;53.444;9.902;2022-07-10T09:51:41;9.77;;;1.80;;
3997;SDS011;61314;53.444;9.902;2022-07-10T09:54:14;5.07;;;2.00;;
3997;SDS011;61314;53.444;9.902;2022-07-10T09:56:42;5.83;;;2.23;;
3997;SDS011;61314;53.444;9.902;2022-07-10T09:59:11;4.57;;;1.57;;
3997;SDS011;61314;53.444;9.902;2022-07-10T10:01:41;7.87;;;1.63;;
3997;SDS011;61314;53.444;9.902;2022-07-10T10:04:12;5.83;;;2.10;;
3997;SDS011;61314;53.444;9.902;2022-07-10T10:06:51;7.57;;;2.23;;
3997;SDS011;61314;53.444;9.902;2022-07-10T10:12:24;5.50;;;1.70;;
3997;SDS011;61314;53.444;9.902;2022-07-10T10:14:55;6.90;;;1.60;;
3997;SDS011;61314;53.444;9.902;2022-07-10T10:17:24;7.93;;;2.00;;
3997;SDS011;61314;53.444;9.902;2022-07-10T10:19:53;7.00;;;2.00;;
3997;SDS011;61314;53.444;9.902;2022-07-10T10:22:40;8.53;;;1.77;;
3997;SDS011;61314;53.444;9.902;2022-07-10T10:25:08;8.40;;;2.23;;
3997;SDS011;61314;53.444;9.902;2022-07-10T10:27:36;9.63;;;2.23;;
3997;SDS011;61314;53.444;9.902;2022-07-10T10:30:03;12.73;;;2.43;;
3997;SDS011;61314;53.444;9.902;2022-07-10T10:32:31;10.10;;;1.67;;
3997;SDS011;61314;53.444;9.902;2022-07-10T10:34:58;7.10;;;1.90;;
3997;SDS011;61314;53.444;9.902;2022-07-10T10:39:56;4.60;;;2.30;;
3997;SDS011;61314;53.444;9.902;2022-07-10T10:42:31;4.73;;;1.50;;
3997;SDS011;61314;53.444;9.902;2022-07-10T10:48:36;8.90;;;1.97;;
3997;SDS011;61314;53.444;9.902;2022-07-10T10:51:03;8.67;;;1.77;;
3997;SDS011;61314;53.444;9.902;2022-07-10T10:53:31;9.07;;;1.97;;
3997;SDS011;61314;53.444;9.902;2022-07-10T10:59:05;13.20;;;2.30;;
3997;SDS011;61314;53.444;9.902;2022-07-10T11:01:25;5.13;;;1.83;;
3997;SDS011;61314;53.444;9.902;2022-07-10T11:12:08;6.20;;;1.83;;
3997;SDS011;61314;53.444;9.902;2022-07-10T11:14:37;9.67;;;2.20;;
3997;SDS011;61314;53.444;9.902;2022-07-10T11:17:12;7.70;;;1.97;;
3997;SDS011;61314;53.444;9.902;2022-07-10T11:19:40;16.77;;;3.00;;
3997;SDS011;61314;53.444;9.902;2022-07-10T11:24:40;15.87;;;1.90;;
3997;SDS011;61314;53.444;9.902;2022-07-10T11:27:14;9.30;;;2.30;;
3997;SDS011;61314;53.444;9.902;2022-07-10T11:30:00;8.93;;;2.53;;
3997;SDS011;61314;53.444;9.902;2022-07-10T11:32:27;8.30;;;1.80;;
3997;SDS011;61314;53.444;9.902;2022-07-10T11:34:55;7.70;;;2.23;;
3997;SDS011;61314;53.444;9.902;2022-07-10T11:37:22;6.30;;;1.77;;
3997;SDS011;61314;53.444;9.902;2022-07-10T11:40:10;4.97;;;2.47;;
3997;SDS011;61314;53.444;9.902;2022-07-10T11:42:48;12.63;;;2.00;;
3997;SDS011;61314;53.444;9.902;2022-07-10T11:45:25;8.63;;;2.70;;
3997;SDS011;61314;53.444;9.902;2022-07-10T11:47:53;6.17;;;1.87;;
3997;SDS011;61314;53.444;9.902;2022-07-10T11:50:20;4.03;;;1.60;;
3997;SDS011;61314;53.444;9.902;2022-07-10T11:52:47;9.73;;;2.50;;
3997;SDS011;61314;53.444;9.902;2022-07-10T11:55:15;3.83;;;2.30;;
3997;SDS011;61314;53.444;9.902;2022-07-10T11:57:43;6.10;;;1.60;;
3997;SDS011;61314;53.444;9.902;2022-07-10T12:02:52;13.17;;;2.57;;
3997;SDS011;61314;53.444;9.902;2022-07-10T12:05:33;10.90;;;1.73;;
3997;SDS011;61314;53.444;9.902;2022-07-10T12:08:01;10.40;;;2.63;;
3997;SDS011;61314;53.444;9.902;2022-07-10T12:10:29;12.73;;;1.77;;
3997;SDS011;61314;53.444;9.902;2022-07-10T12:13:08;20.63;;;2.17;;
3997;SDS011;61314;53.444;9.902;2022-07-10T12:15:43;6.80;;;2.07;;
3997;SDS011;61314;53.444;9.902;2022-07-10T12:20:49;9.13;;;2.10;;
3997;SDS011;61314;53.444;9.902;2022-07-10T12:23:19;5.80;;;1.97;;
3997;SDS011;61314;53.444;9.902;2022-07-10T12:25:47;4.80;;;1.83;;
3997;SDS011;61314;53.444;9.902;2022-07-10T12:28:15;8.47;;;2.10;;
3997;SDS011;61314;53.444;9.902;2022-07-10T12:30:43;10.73;;;2.53;;
3997;SDS011;61314;53.444;9.902;2022-07-10T12:33:15;7.23;;;2.47;;
3997;SDS011;61314;53.444;9.902;2022-07-10T12:35:46;8.73;;;2.37;;
3997;SDS011;61314;53.444;9.902;2022-07-10T12:38:26;3.73;;;1.50;;
3997;SDS011;61314;53.444;9.902;2022-07-10T12:41:10;6.07;;;1.50;;
3997;SDS011;61314;53.444;9.902;2022-07-10T12:43:38;4.97;;;1.37;;
3997;SDS011;61314;53.444;9.902;2022-07-10T12:48:42;12.60;;;2.13;;
3997;SDS011;61314;53.444;9.902;2022-07-10T12:51:21;6.80;;;2.20;;
3997;SDS011;61314;53.444;9.902;2022-07-10T12:53:48;7.73;;;1.60;;
3997;SDS011;61314;53.444;9.902;2022-07-10T12:59:22;6.63;;;2.00;;
3997;SDS011;61314;53.444;9.902;2022-07-10T13:01:50;5.57;;;1.47;;
3997;SDS011;61314;53.444;9.902;2022-07-10T13:04:22;9.03;;;2.03;;
3997;SDS011;61314;53.444;9.902;2022-07-10T13:06:51;3.33;;;1.40;;
3997;SDS011;61314;53.444;9.902;2022-07-10T13:09:22;9.27;;;1.60;;
3997;SDS011;61314;53.444;9.902;2022-07-10T13:11:50;5.40;;;1.80;;
3997;SDS011;61314;53.444;9.902;2022-07-10T13:14:19;5.53;;;1.83;;
3997;SDS011;61314;53.444;9.902;2022-07-10T13:16:47;6.30;;;1.93;;
3997;SDS011;61314;53.444;9.902;2022-07-10T13:19:14;7.50;;;2.30;;
3997;SDS011;61314;53.444;9.902;2022-07-10T13:21:41;11.93;;;2.30;;
3997;SDS011;61314;53.444;9.902;2022-07-10T13:24:07;6.40;;;1.40;;
3997;SDS011;61314;53.444;9.902;2022-07-10T13:26:34;6.40;;;1.53;;
3997;SDS011;61314;53.444;9.902;2022-07-10T13:29:02;4.00;;;1.60;;
3997;SDS011;61314;53.444;9.902;2022-07-10T13:31:29;10.50;;;2.00;;
3997;SDS011;61314;53.444;9.902;2022-07-10T13:33:56;11.13;;;1.60;;
3997;SDS011;61314;53.444;9.902;2022-07-10T13:36:22;7.73;;;1.93;;
3997;SDS011;61314;53.444;9.902;2022-07-10T13:38:50;10.60;;;1.87;;
3997;SDS011;61314;53.444;9.902;2022-07-10T13:41:18;6.40;;;1.73;;
3997;SDS011;61314;53.444;9.902;2022-07-10T13:43:45;8.10;;;2.43;;
3997;SDS011;61314;53.444;9.902;2022-07-10T13:46:13;10.00;;;1.90;;
3997;SDS011;61314;53.444;9.902;2022-07-10T13:48:40;5.00;;;2.00;;
3997;SDS011;61314;53.444;9.902;2022-07-10T13:51:07;6.80;;;1.77;;
3997;SDS011;61314;53.444;9.902;2022-07-10T13:53:34;7.80;;;1.60;;
3997;SDS011;61314;53.444;9.902;2022-07-10T13:56:03;6.97;;;1.93;;
3997;SDS011;61314;53.444;9.902;2022-07-10T13:58:31;4.10;;;1.33;;
3997;SDS011;61314;53.444;9.902;2022-07-10T14:00:58;19.30;;;1.73;;
3997;SDS011;61314;53.444;9.902;2022-07-10T14:03:25;11.97;;;1.70;;
3997;SDS011;61314;53.444;9.902;2022-07-10T14:05:53;9.97;;;2.10;;
3997;SDS011;61314;53.444;9.902;2022-07-10T14:08:21;12.77;;;2.30;;
3997;SDS011;61314;53.444;9.902;2022-07-10T14:10:48;9.23;;;2.53;;
3997;SDS011;61314;53.444;9.902;2022-07-10T14:13:15;6.70;;;1.87;;
3997;SDS011;61314;53.444;9.902;2022-07-10T14:15:43;7.50;;;2.20;;
3997;SDS011;61314;53.444;9.902;2022-07-10T14:18:14;3.83;;;1.40;;
3997;SDS011;61314;53.444;9.902;2022-07-10T14:21:01;11.70;;;1.90;;
3997;SDS011;61314;53.444;9.902;2022-07-10T14:23:28;7.00;;;2.83;;
3997;SDS011;61314;53.444;9.902;2022-07-10T14:25:56;10.10;;;2.37;;
3997;SDS011;61314;53.444;9.902;2022-07-10T14:28:23;8.83;;;2.00;;
3997;SDS011;61314;53.444;9.902;2022-07-10T14:30:50;7.03;;;3.00;;
3997;SDS011;61314;53.444;9.902;2022-07-10T14:33:18;9.23;;;1.60;;
3997;SDS011;61314;53.444;9.902;2022-07-10T14:35:45;7.83;;;2.87;;
3997;SDS011;61314;53.444;9.902;2022-07-10T14:38:12;10.77;;;1.90;;
3997;SDS011;61314;53.444;9.902;2022-07-10T14:40:39;6.90;;;1.80;;
3997;SDS011;61314;53.444;9.902;2022-07-10T14:43:07;7.10;;;1.60;;
3997;SDS011;61314;53.444;9.902;2022-07-10T14:45:34;9.13;;;2.10;;
3997;SDS011;61314;53.444;9.902;2022-07-10T14:48:21;5.13;;;1.60;;
3997;SDS011;61314;53.444;9.902;2022-07-10T14:50:48;4.73;;;1.30;;
3997;SDS011;61314;53.444;9.902;2022-07-10T14:53:16;5.23;;;1.70;;
3997;SDS011;61314;53.444;9.902;2022-07-10T14:55:43;7.67;;;2.30;;
3997;SDS011;61314;53.444;9.902;2022-07-10T14:58:10;6.37;;;1.83;;
3997;SDS011;61314;53.444;9.902;2022-07-10T15:00:37;3.33;;;1.07;;
3997;SDS011;61314;53.444;9.902;2022-07-10T15:03:05;6.87;;;1.60;;
3997;SDS011;61314;53.444;9.902;2022-07-10T15:05:33;5.53;;;1.97;;
3997;SDS011;61314;53.444;9.902;2022-07-10T15:08:01;8.37;;;2.43;;
3997;SDS011;61314;53.444;9.902;2022-07-10T15:10:30;4.70;;;2.00;;
3997;SDS011;61314;53.444;9.902;2022-07-10T15:12:58;7.20;;;1.70;;
3997;SDS011;61314;53.444;9.902;2022-07-10T15:15:27;9.57;;;1.80;;
3997;SDS011;61314;53.444;9.902;2022-07-10T15:17:54;4.60;;;1.63;;
3997;SDS011;61314;53.444;9.902;2022-07-10T15:20:21;7.47;;;1.47;;
3997;SDS011;61314;53.444;9.902;2022-07-10T15:22:49;7.87;;;2.00;;
3997;SDS011;61314;53.444;9.902;2022-07-10T15:25:16;5.57;;;2.10;;
3997;SDS011;61314;53.444;9.902;2022-07-10T15:27:43;12.40;;;1.90;;
3997;SDS011;61314;53.444;9.902;2022-07-10T15:30:11;7.40;;;1.90;;
3997;SDS011;61314;53.444;9.902;2022-07-10T15:32:38;9.77;;;1.90;;
3997;SDS011;61314;53.444;9.902;2022-07-10T15:35:06;5.20;;;1.60;;
3997;SDS011;61314;53.444;9.902;2022-07-10T15:37:33;4.33;;;1.50;;
3997;SDS011;61314;53.444;9.902;2022-07-10T15:40:01;10.43;;;2.07;;
3997;SDS011;61314;53.444;9.902;2022-07-10T15:42:28;6.17;;;1.90;;
3997;SDS011;61314;53.444;9.902;2022-07-10T15:44:56;15.40;;;2.60;;
3997;SDS011;61314;53.444;9.902;2022-07-10T15:47:23;9.30;;;1.50;;
3997;SDS011;61314;53.444;9.902;2022-07-10T15:49:51;8.97;;;2.10;;
3997;SDS011;61314;53.444;9.902;2022-07-10T15:52:18;6.20;;;1.73;;